createdAt,value
2017-09-28T00:00:34.905Z,71.90
2017-09-28T00:03:02.378Z,71.20
2017-09-28T00:05:29.820Z,71.10
2017-09-28T00:07:57.252Z,70.90
2017-09-28T00:10:24.691Z,71.20
2017-09-28T00:12:52.137Z,71.50
2017-09-28T00:15:19.580Z,71.50
2017-09-28T00:17:47.016Z,71.20
2017-09-28T00:20:14.477Z,71.20
2017-09-28T00:22:42.018Z,71.20
2017-09-28T00:25:09.459Z,71.20
2017-09-28T00:27:37.001Z,71.20
2017-09-28T00:30:04.453Z,71.20
2017-09-28T00:32:31.994Z,71.20
2017-09-28T00:34:59.433Z,71.30
2017-09-28T00:37:26.872Z,70.90
2017-09-28T00:39:55.852Z,71.30
2017-09-28T00:42:23.296Z,71.20
2017-09-28T00:44:50.750Z,71.60
2017-09-28T00:47:18.288Z,71.40
2017-09-28T00:49:45.723Z,71.50
2017-09-28T00:52:13.177Z,71.50
2017-09-28T00:54:40.613Z,71.40
2017-09-28T00:57:08.066Z,71.30
2017-09-28T00:59:35.512Z,71.50
2017-09-28T01:02:03.038Z,71.50
2017-09-28T01:04:30.468Z,71.30
2017-09-28T01:06:57.912Z,71.20
2017-09-28T01:09:25.347Z,71.20
2017-09-28T01:11:52.811Z,71.10
2017-09-28T01:14:20.349Z,71.40
2017-09-28T01:16:47.883Z,71.70
2017-09-28T01:19:15.344Z,71.50
2017-09-28T01:21:42.884Z,71.90
2017-09-28T01:24:10.432Z,71.90
2017-09-28T01:26:37.974Z,72.00
2017-09-28T01:29:05.418Z,72.00
2017-09-28T01:31:32.868Z,72.00
2017-09-28T01:34:00.300Z,72.00
2017-09-28T01:36:27.745Z,72.00
2017-09-28T01:38:55.291Z,72.00
2017-09-28T01:41:22.732Z,72.00
2017-09-28T01:43:50.167Z,71.90
2017-09-28T01:46:17.627Z,71.90
2017-09-28T01:48:45.059Z,72.10
2017-09-28T01:51:12.604Z,71.90
2017-09-28T01:53:40.049Z,71.90
2017-09-28T01:56:07.489Z,71.80
2017-09-28T01:58:34.927Z,71.80
2017-09-28T02:01:02.393Z,72.50
2017-09-28T02:03:29.817Z,71.80
2017-09-28T02:05:57.261Z,71.80
2017-09-28T02:08:24.695Z,71.80
2017-09-28T02:10:52.913Z,71.80
2017-09-28T02:13:20.356Z,71.90
2017-09-28T02:15:47.800Z,71.80
2017-09-28T02:18:15.271Z,71.70
2017-09-28T02:20:42.684Z,72.10
2017-09-28T02:23:10.119Z,72.00
2017-09-28T02:25:37.565Z,72.00
2017-09-28T02:28:05.004Z,71.90
2017-09-28T02:30:32.509Z,71.90
2017-09-28T02:33:00.053Z,71.80
2017-09-28T02:35:27.592Z,72.50
2017-09-28T02:37:55.025Z,71.70
2017-09-28T02:40:22.475Z,71.80
2017-09-28T02:42:50.020Z,71.80
2017-09-28T02:45:17.455Z,71.80
2017-09-28T02:47:44.912Z,71.60
2017-09-28T02:50:12.452Z,71.70
2017-09-28T02:52:40.011Z,71.60
2017-09-28T02:55:07.453Z,71.20
2017-09-28T02:57:34.987Z,72.30
2017-09-28T03:00:02.528Z,71.90
2017-09-28T03:02:29.971Z,71.90
2017-09-28T03:04:57.515Z,71.60
2017-09-28T03:07:24.955Z,71.70
2017-09-28T03:09:52.406Z,71.60
2017-09-28T03:12:19.954Z,71.20
2017-09-28T03:14:47.393Z,70.80
2017-09-28T03:17:14.949Z,71.00
2017-09-28T03:19:42.392Z,71.30
2017-09-28T03:22:10.607Z,71.70
2017-09-28T03:24:38.049Z,71.50
2017-09-28T03:27:05.529Z,71.50
2017-09-28T03:29:33.728Z,71.40
2017-09-28T03:32:01.176Z,71.50
2017-09-28T03:34:28.607Z,71.40
2017-09-28T03:36:56.044Z,71.40
2017-09-28T03:39:24.244Z,71.40
2017-09-28T03:41:51.707Z,71.40
2017-09-28T03:44:19.147Z,71.70
2017-09-28T03:46:46.592Z,72.10
2017-09-28T03:49:14.032Z,71.80
2017-09-28T03:51:41.475Z,71.70
2017-09-28T03:54:08.920Z,71.80
2017-09-28T03:56:36.356Z,71.80
2017-09-28T03:59:03.811Z,72.00
2017-09-28T04:01:31.409Z,72.00
2017-09-28T04:03:58.920Z,72.10
2017-09-28T04:06:26.443Z,72.20
2017-09-28T04:08:53.880Z,71.90
2017-09-28T04:11:21.436Z,71.80
2017-09-28T04:13:48.868Z,71.70
2017-09-28T04:16:16.324Z,71.80
2017-09-28T04:18:43.876Z,71.60
2017-09-28T04:21:11.322Z,71.40
2017-09-28T04:23:38.847Z,71.60
2017-09-28T04:26:06.291Z,71.20
2017-09-28T04:28:34.022Z,71.80
2017-09-28T04:31:01.537Z,71.30
2017-09-28T04:33:28.980Z,71.30
2017-09-28T04:35:56.477Z,71.50
2017-09-28T04:38:23.912Z,71.60
2017-09-28T04:40:51.356Z,71.70
2017-09-28T04:43:18.878Z,71.50
2017-09-28T04:45:46.340Z,71.50
2017-09-28T04:48:14.603Z,71.60
2017-09-28T04:50:42.041Z,71.50
2017-09-28T04:53:09.491Z,71.40
2017-09-28T04:55:36.931Z,71.20
2017-09-28T04:58:04.376Z,71.60
2017-09-28T05:00:31.815Z,71.50
2017-09-28T05:02:59.275Z,71.50
2017-09-28T05:05:27.480Z,72.20
2017-09-28T05:07:54.929Z,71.40
2017-09-28T05:10:22.363Z,71.80
2017-09-28T05:12:49.843Z,71.90
2017-09-28T05:15:17.301Z,71.90
2017-09-28T05:17:44.772Z,72.00
2017-09-28T05:20:12.971Z,71.80
2017-09-28T05:22:40.417Z,71.80
2017-09-28T05:25:07.880Z,71.80
2017-09-28T05:27:35.336Z,71.50
2017-09-28T05:30:02.774Z,71.30
2017-09-28T05:32:30.311Z,71.50
2017-09-28T05:34:57.854Z,71.40
2017-09-28T05:37:25.298Z,71.30
2017-09-28T05:39:52.744Z,71.40
2017-09-28T05:42:20.189Z,71.80
2017-09-28T05:44:47.629Z,71.70
2017-09-28T05:47:15.063Z,71.50
2017-09-28T05:49:42.508Z,71.50
2017-09-28T05:52:09.951Z,71.40
2017-09-28T05:54:37.414Z,71.40
2017-09-28T05:57:04.940Z,72.70
2017-09-28T05:59:32.491Z,71.90
2017-09-28T06:01:59.937Z,71.70
2017-09-28T06:04:27.385Z,70.40
2017-09-28T06:06:54.827Z,70.50
2017-09-28T06:09:23.080Z,69.60
2017-09-28T06:11:50.525Z,69.60
2017-09-28T06:14:17.972Z,69.60
2017-09-28T06:16:45.505Z,69.50
2017-09-28T06:19:12.963Z,69.20
2017-09-28T06:21:40.402Z,68.60
2017-09-28T06:24:07.941Z,68.20
2017-09-28T06:26:35.386Z,68.70
2017-09-28T06:29:02.820Z,68.20
2017-09-28T06:31:30.261Z,68.10
2017-09-28T06:33:57.813Z,67.90
2017-09-28T06:36:25.278Z,67.70
2017-09-28T06:38:53.480Z,67.50
2017-09-28T06:41:20.927Z,67.50
2017-09-28T06:43:48.371Z,67.40
2017-09-28T06:46:15.845Z,67.50
2017-09-28T06:48:43.289Z,67.30
2017-09-28T06:51:10.820Z,67.30
2017-09-28T06:53:38.263Z,67.70
2017-09-28T06:56:05.703Z,67.60
2017-09-28T06:58:33.140Z,67.50
2017-09-28T07:01:00.671Z,68.00
2017-09-28T07:03:28.142Z,68.10
2017-09-28T07:05:55.680Z,67.60
2017-09-28T07:08:23.124Z,67.40
2017-09-28T07:10:50.668Z,67.60
2017-09-28T07:13:18.872Z,67.60
2017-09-28T07:15:46.376Z,66.90
2017-09-28T07:18:13.825Z,66.60
2017-09-28T07:20:41.282Z,66.60
2017-09-28T07:23:09.489Z,65.20
2017-09-28T07:25:37.043Z,65.20
2017-09-28T07:28:04.504Z,64.80
2017-09-28T07:30:31.947Z,63.80
2017-09-28T07:32:59.392Z,63.60
2017-09-28T07:35:26.833Z,63.00
2017-09-28T07:37:54.271Z,62.70
2017-09-28T07:40:21.722Z,62.50
2017-09-28T07:42:49.155Z,62.60
2017-09-28T07:45:16.604Z,62.00
2017-09-28T07:47:44.064Z,61.90
2017-09-28T07:50:11.507Z,60.70
2017-09-28T07:52:39.733Z,59.50
2017-09-28T07:55:07.164Z,59.40
2017-09-28T07:57:34.619Z,58.50
2017-09-28T08:00:02.080Z,58.30
2017-09-28T08:02:29.520Z,58.10
2017-09-28T08:04:56.959Z,57.70
2017-09-28T08:07:24.408Z,57.40
2017-09-28T08:09:51.962Z,57.30
2017-09-28T08:12:19.491Z,56.30
2017-09-28T08:14:47.326Z,55.90
2017-09-28T08:17:14.790Z,54.90
2017-09-28T08:19:42.249Z,54.00
2017-09-28T08:22:09.665Z,54.20
2017-09-28T08:24:37.128Z,53.70
2017-09-28T08:27:04.555Z,53.90
2017-09-28T08:29:32.104Z,53.70
2017-09-28T08:31:59.532Z,53.80
2017-09-28T08:34:26.988Z,53.10
2017-09-28T08:36:54.437Z,53.00
2017-09-28T08:39:21.876Z,52.80
2017-09-28T08:41:49.391Z,52.30
2017-09-28T08:44:16.880Z,52.20
2017-09-28T08:46:44.316Z,52.90
2017-09-28T08:49:11.764Z,53.10
2017-09-28T08:51:39.204Z,53.00
2017-09-28T08:54:06.650Z,53.10
2017-09-28T08:56:34.071Z,52.50
2017-09-28T08:59:01.523Z,52.50
2017-09-28T09:01:28.970Z,52.30
2017-09-28T09:03:56.412Z,51.90
2017-09-28T09:06:23.950Z,52.50
2017-09-28T09:08:51.404Z,53.00
2017-09-28T09:11:19.037Z,52.50
2017-09-28T09:13:46.609Z,52.70
2017-09-28T09:16:14.149Z,52.40
2017-09-28T09:18:41.595Z,53.00
2017-09-28T09:21:09.801Z,53.70
2017-09-28T09:23:37.288Z,53.70
2017-09-28T09:26:04.720Z,53.40
2017-09-28T09:28:32.156Z,53.10
2017-09-28T09:30:59.604Z,52.80
2017-09-28T09:33:27.032Z,51.60
2017-09-28T09:35:54.468Z,51.10
2017-09-28T09:38:21.895Z,51.00
2017-09-28T09:40:49.327Z,50.90
2017-09-28T09:43:16.759Z,51.40
2017-09-28T09:45:44.192Z,50.50
2017-09-28T09:48:12.381Z,49.70
2017-09-28T09:50:39.811Z,49.70
2017-09-28T09:53:07.254Z,49.10
2017-09-28T09:55:34.698Z,48.60
2017-09-28T09:58:02.980Z,48.60
2017-09-28T10:00:30.413Z,48.50
2017-09-28T10:02:57.852Z,48.30
2017-09-28T10:05:25.305Z,49.00
2017-09-28T10:07:57.622Z,48.80
2017-09-28T10:10:32.117Z,47.80
2017-09-28T10:13:07.705Z,48.60
2017-09-28T10:15:38.453Z,48.60
2017-09-28T10:18:05.876Z,48.60
2017-09-28T10:20:33.305Z,48.60
2017-09-28T10:23:00.862Z,49.10
2017-09-28T10:25:28.330Z,48.80
2017-09-28T10:27:57.268Z,47.70
2017-09-28T10:30:24.691Z,47.60
2017-09-28T10:32:52.185Z,47.50
2017-09-28T10:35:19.691Z,47.90
2017-09-28T10:37:47.158Z,47.30
2017-09-28T10:40:14.615Z,47.20
2017-09-28T10:42:42.057Z,48.00
2017-09-28T10:45:09.486Z,47.80
2017-09-28T10:47:37.042Z,48.40
2017-09-28T10:50:04.480Z,48.40
2017-09-28T10:52:31.925Z,48.50
2017-09-28T10:54:59.360Z,48.30
2017-09-28T10:57:26.809Z,48.60
2017-09-28T10:59:54.245Z,48.30
2017-09-28T11:02:21.679Z,47.50
2017-09-28T11:04:49.119Z,47.90
2017-09-28T11:07:16.575Z,48.80
2017-09-28T11:09:44.017Z,48.10
2017-09-28T11:12:11.440Z,48.60
2017-09-28T11:14:38.975Z,48.30
2017-09-28T11:17:06.404Z,48.90
2017-09-28T11:19:33.839Z,48.80
2017-09-28T11:22:01.268Z,49.30
2017-09-28T11:24:29.503Z,49.20
2017-09-28T11:26:56.935Z,49.20
2017-09-28T11:29:24.379Z,50.10
2017-09-28T11:31:51.843Z,49.10
2017-09-28T11:34:19.259Z,49.60
2017-09-28T11:36:46.701Z,49.70
2017-09-28T11:39:14.165Z,49.50
2017-09-28T11:41:41.589Z,50.30
2017-09-28T11:44:09.045Z,50.10
2017-09-28T11:46:36.477Z,49.80
2017-09-28T11:49:04.037Z,50.00
2017-09-28T11:51:31.605Z,49.70
2017-09-28T11:53:59.796Z,49.10
2017-09-28T11:56:27.235Z,49.10
2017-09-28T11:58:54.712Z,48.90
2017-09-28T12:01:22.167Z,48.60
2017-09-28T12:03:51.411Z,48.40
2017-09-28T12:06:18.834Z,48.50
2017-09-28T12:08:46.257Z,48.70
2017-09-28T12:11:14.498Z,48.50
2017-09-28T12:16:16.000Z,49.00
2017-09-28T12:18:43.415Z,48.80
2017-09-28T12:21:10.852Z,48.30
2017-09-28T12:23:38.288Z,48.50
2017-09-28T12:26:06.476Z,47.70
2017-09-28T12:28:33.908Z,47.70
2017-09-28T12:31:01.399Z,47.80
2017-09-28T12:33:28.864Z,47.40
2017-09-28T12:35:56.298Z,47.50
2017-09-28T12:38:23.737Z,47.70
2017-09-28T12:40:51.171Z,47.40
2017-09-28T12:43:19.372Z,48.30
2017-09-28T12:45:46.808Z,48.40
2017-09-28T12:48:15.005Z,48.70
2017-09-28T12:50:42.444Z,48.70
2017-09-28T12:53:09.884Z,48.70
2017-09-28T12:55:37.433Z,48.30
2017-09-28T12:58:05.783Z,48.40
2017-09-28T13:00:33.216Z,47.90
2017-09-28T13:03:00.742Z,47.60
2017-09-28T13:05:28.181Z,47.70
2017-09-28T13:07:56.383Z,48.10
2017-09-28T13:10:23.862Z,48.10
2017-09-28T13:12:51.298Z,48.40
2017-09-28T13:15:18.727Z,48.50
2017-09-28T13:17:46.281Z,48.10
2017-09-28T13:20:13.726Z,48.30
2017-09-28T13:22:41.273Z,48.30
2017-09-28T13:25:08.720Z,48.10
2017-09-28T13:27:36.156Z,47.70
2017-09-28T13:30:03.605Z,47.40
2017-09-28T13:32:31.043Z,46.80
2017-09-28T13:35:00.012Z,46.90
2017-09-28T13:37:27.476Z,46.80
2017-09-28T13:39:54.907Z,47.00
2017-09-28T13:42:22.337Z,47.30
2017-09-28T13:44:49.769Z,46.60
2017-09-28T13:47:17.247Z,46.50
2017-09-28T13:49:44.811Z,46.00
2017-09-28T13:52:12.227Z,46.20
2017-09-28T13:54:39.771Z,47.50
2017-09-28T13:57:07.218Z,46.50
2017-09-28T13:59:34.640Z,47.00
2017-09-28T14:02:02.096Z,47.50
2017-09-28T14:04:29.553Z,47.50
2017-09-28T14:06:56.975Z,46.80
2017-09-28T14:09:24.416Z,46.90
2017-09-28T14:11:52.936Z,47.20
2017-09-28T14:14:20.433Z,47.80
2017-09-28T14:16:47.869Z,47.10
2017-09-28T14:19:15.315Z,47.30
2017-09-28T14:21:42.780Z,47.50
2017-09-28T14:24:10.212Z,47.30
2017-09-28T14:26:37.645Z,47.40
2017-09-28T14:29:05.081Z,47.70
2017-09-28T14:31:32.631Z,48.30
2017-09-28T14:34:00.074Z,48.40
2017-09-28T14:36:27.515Z,47.60
2017-09-28T14:38:54.956Z,46.80
2017-09-28T14:41:22.680Z,47.00
2017-09-28T14:43:50.102Z,47.30
2017-09-28T14:46:17.595Z,47.10
2017-09-28T14:48:45.048Z,47.40
2017-09-28T14:51:12.476Z,47.70
2017-09-28T14:53:39.920Z,47.80
2017-09-28T14:56:07.478Z,47.80
2017-09-28T14:58:35.681Z,48.10
2017-09-28T15:01:03.108Z,48.10
2017-09-28T15:03:31.432Z,47.90
2017-09-28T15:05:59.664Z,47.90
2017-09-28T15:08:27.100Z,48.20
2017-09-28T15:10:54.527Z,48.70
2017-09-28T15:13:21.960Z,48.50
2017-09-28T15:15:50.160Z,49.20
2017-09-28T15:18:17.629Z,49.20
2017-09-28T15:20:45.066Z,49.70
2017-09-28T15:23:12.497Z,49.30
2017-09-28T15:25:39.973Z,49.20
2017-09-28T15:28:07.396Z,49.60
2017-09-28T15:30:34.932Z,49.70
2017-09-28T15:33:02.387Z,50.00
2017-09-28T15:35:29.820Z,50.40
2017-09-28T15:37:57.260Z,50.50
2017-09-28T15:40:24.704Z,50.50
2017-09-28T15:42:52.131Z,50.70
2017-09-28T15:45:19.588Z,50.80
2017-09-28T15:47:47.030Z,51.00
2017-09-28T15:50:14.468Z,51.50
2017-09-28T15:52:42.001Z,51.50
2017-09-28T15:55:09.441Z,51.60
2017-09-28T15:57:36.923Z,51.90
2017-09-28T16:00:04.356Z,52.20
2017-09-28T16:02:32.560Z,52.80
2017-09-28T16:05:00.051Z,52.90
2017-09-28T16:07:27.510Z,53.40
2017-09-28T16:09:54.931Z,53.40
2017-09-28T16:12:22.359Z,53.30
2017-09-28T16:14:49.884Z,53.70
2017-09-28T16:17:17.348Z,54.90
2017-09-28T16:19:44.776Z,54.10
2017-09-28T16:22:12.216Z,54.50
2017-09-28T16:24:39.657Z,54.60
2017-09-28T16:27:07.145Z,55.00
2017-09-28T16:29:34.594Z,55.50
2017-09-28T16:32:02.032Z,55.50
2017-09-28T16:34:29.492Z,55.50
2017-09-28T16:36:56.914Z,55.40
2017-09-28T16:39:25.857Z,56.20
2017-09-28T16:41:53.302Z,56.20
2017-09-28T16:44:20.760Z,56.60
2017-09-28T16:46:48.333Z,56.80
2017-09-28T16:49:15.825Z,56.90
2017-09-28T16:51:43.270Z,57.20
2017-09-28T16:54:10.707Z,57.90
2017-09-28T16:56:38.187Z,58.10
2017-09-28T16:59:05.631Z,58.30
2017-09-28T17:01:34.079Z,59.70
2017-09-28T17:04:01.622Z,59.10
2017-09-28T17:06:29.088Z,59.30
2017-09-28T17:08:56.637Z,59.50
2017-09-28T17:11:24.175Z,60.10
2017-09-28T17:13:51.615Z,60.70
2017-09-28T17:16:19.064Z,61.00
2017-09-28T17:18:46.613Z,61.50
2017-09-28T17:21:14.812Z,62.80
2017-09-28T17:23:42.277Z,62.90
2017-09-28T17:26:09.716Z,63.20
2017-09-28T17:28:37.162Z,64.00
2017-09-28T17:31:04.609Z,64.20
2017-09-28T17:33:32.115Z,64.60
2017-09-28T17:36:00.344Z,65.40
2017-09-28T17:38:27.776Z,65.40
2017-09-28T17:40:55.216Z,65.50
2017-09-28T17:43:22.897Z,65.60
2017-09-28T17:45:51.125Z,66.50
2017-09-28T17:48:18.604Z,66.50
2017-09-28T17:50:46.132Z,67.30
2017-09-28T17:53:13.571Z,67.00
2017-09-28T17:55:41.109Z,66.60
2017-09-28T17:58:08.566Z,67.00
2017-09-28T18:00:36.009Z,67.20
2017-09-28T18:03:03.541Z,67.10
2017-09-28T18:05:31.618Z,67.70
2017-09-28T18:07:59.148Z,67.60
2017-09-28T18:10:26.598Z,67.70
2017-09-28T18:12:54.037Z,67.80
2017-09-28T18:15:21.574Z,68.10
2017-09-28T18:17:49.074Z,68.30
2017-09-28T18:20:18.208Z,68.50
2017-09-28T18:22:46.496Z,68.70
2017-09-28T18:25:14.009Z,68.70
2017-09-28T18:27:42.212Z,69.20
2017-09-28T18:30:09.657Z,69.20
2017-09-28T18:32:37.881Z,69.40
2017-09-28T18:35:06.093Z,69.80
2017-09-28T18:37:33.529Z,69.10
2017-09-28T18:40:00.981Z,69.30
2017-09-28T18:42:28.420Z,69.20
2017-09-28T18:44:55.886Z,69.20
2017-09-28T18:47:23.344Z,69.20
2017-09-28T18:49:50.804Z,69.00
2017-09-28T18:52:18.241Z,69.00
2017-09-28T18:54:46.449Z,69.20
2017-09-28T18:57:13.902Z,69.40
2017-09-28T18:59:41.338Z,69.60
2017-09-28T19:02:08.893Z,69.70
2017-09-28T19:04:36.321Z,69.70
2017-09-28T19:07:03.773Z,69.70
2017-09-28T19:09:31.212Z,69.90
2017-09-28T19:11:58.680Z,70.10
2017-09-28T19:14:26.137Z,70.30
2017-09-28T19:16:53.589Z,70.30
2017-09-28T19:19:21.064Z,70.40
2017-09-28T19:21:48.663Z,70.50
2017-09-28T19:24:16.111Z,70.60
2017-09-28T19:26:43.573Z,71.00
2017-09-28T19:29:11.790Z,71.00
2017-09-28T19:31:39.245Z,71.00
2017-09-28T19:34:06.680Z,71.00
2017-09-28T19:36:34.141Z,71.00
2017-09-28T19:39:01.624Z,71.10
2017-09-28T19:41:29.131Z,71.30
2017-09-28T19:43:56.564Z,71.50
2017-09-28T19:46:24.011Z,71.80
2017-09-28T19:48:51.462Z,71.70
2017-09-28T19:51:18.896Z,71.70
2017-09-28T19:53:46.356Z,71.70
2017-09-28T19:56:13.787Z,71.60
2017-09-28T19:58:41.320Z,71.40
2017-09-28T20:01:08.760Z,71.70
2017-09-28T20:03:37.028Z,71.50
2017-09-28T20:06:04.471Z,71.60
2017-09-28T20:08:31.913Z,71.80
2017-09-28T20:10:59.354Z,72.10
2017-09-28T20:13:26.796Z,72.50
2017-09-28T20:15:54.254Z,72.50
2017-09-28T20:18:22.469Z,72.60
2017-09-28T20:20:49.913Z,72.50
2017-09-28T20:23:17.380Z,72.60
2017-09-28T20:25:44.817Z,72.80
2017-09-28T20:28:12.266Z,73.20
2017-09-28T20:30:39.700Z,73.30
2017-09-28T20:33:07.144Z,73.20
2017-09-28T20:35:34.584Z,73.20
2017-09-28T20:38:02.039Z,73.10
2017-09-28T20:40:29.505Z,73.00
2017-09-28T20:42:57.737Z,73.00
2017-09-28T20:45:25.190Z,73.00
2017-09-28T20:47:52.629Z,72.90
2017-09-28T20:50:20.069Z,73.00
2017-09-28T20:52:47.508Z,73.00
2017-09-28T20:55:16.460Z,74.00
2017-09-28T20:57:43.909Z,73.20
2017-09-28T21:00:11.355Z,72.90
2017-09-28T21:02:38.822Z,73.00
2017-09-28T21:05:06.292Z,73.30
2017-09-28T21:07:34.496Z,73.20
2017-09-28T21:10:01.940Z,73.20
2017-09-28T21:12:29.381Z,72.90
2017-09-28T21:14:56.852Z,73.00
2017-09-28T21:17:24.306Z,73.00
2017-09-28T21:19:51.768Z,73.00
2017-09-28T21:22:20.403Z,72.60
2017-09-28T21:24:47.840Z,72.60
2017-09-28T21:27:15.308Z,72.60
2017-09-28T21:29:43.553Z,72.80
2017-09-28T21:32:10.996Z,72.50
2017-09-28T21:34:38.447Z,72.30
2017-09-28T21:37:05.896Z,71.80
2017-09-28T21:39:34.109Z,72.70
2017-09-28T21:42:01.566Z,72.70
2017-09-28T21:44:29.038Z,72.80
2017-09-28T21:46:56.497Z,73.00
2017-09-28T21:49:24.708Z,72.90
2017-09-28T21:51:52.180Z,72.90
2017-09-28T21:54:21.144Z,73.00
2017-09-28T21:56:48.572Z,73.00
2017-09-28T21:59:16.007Z,72.80
2017-09-28T22:01:43.593Z,72.80
2017-09-28T22:04:11.024Z,72.80
2017-09-28T22:06:38.473Z,73.00
2017-09-28T22:09:05.921Z,73.30
2017-09-28T22:11:33.377Z,73.50
2017-09-28T22:14:01.599Z,74.00
2017-09-28T22:16:29.060Z,74.00
2017-09-28T22:18:56.506Z,74.10
2017-09-28T22:21:23.956Z,73.90
2017-09-28T22:23:51.397Z,73.80
2017-09-28T22:26:18.856Z,73.70
2017-09-28T22:28:47.066Z,73.90
2017-09-28T22:31:15.277Z,73.10
2017-09-28T22:33:43.486Z,73.20
2017-09-28T22:36:11.691Z,73.90
2017-09-28T22:38:39.903Z,73.50
2017-09-28T22:41:07.368Z,73.50
2017-09-28T22:43:34.800Z,73.50
2017-09-28T22:46:02.261Z,73.50
2017-09-28T22:48:29.692Z,73.50
2017-09-28T22:50:57.132Z,73.50
2017-09-28T22:53:24.582Z,73.70
2017-09-28T22:55:52.011Z,73.80
2017-09-28T22:58:19.453Z,73.80
2017-09-28T23:00:46.901Z,73.70
2017-09-28T23:03:14.350Z,74.20
2017-09-28T23:05:41.921Z,74.10
2017-09-28T23:08:10.142Z,73.90
2017-09-28T23:10:37.582Z,73.80
2017-09-28T23:13:05.016Z,73.90
2017-09-28T23:15:32.447Z,73.90
2017-09-28T23:17:59.906Z,73.80
2017-09-28T23:20:27.340Z,73.90
2017-09-28T23:22:54.804Z,73.90
2017-09-28T23:25:22.237Z,74.10
2017-09-28T23:27:50.443Z,74.50
2017-09-28T23:30:18.654Z,74.40
2017-09-28T23:32:46.092Z,74.30
2017-09-28T23:35:13.527Z,74.00
2017-09-28T23:37:41.087Z,74.00
2017-09-28T23:40:08.518Z,74.40
2017-09-28T23:42:35.966Z,74.40
2017-09-28T23:45:03.412Z,74.40
2017-09-28T23:47:30.855Z,74.20
2017-09-28T23:49:58.301Z,74.10
2017-09-28T23:52:25.740Z,73.90
2017-09-28T23:54:53.187Z,74.40
2017-09-28T23:57:20.634Z,74.40
2017-09-28T23:59:48.104Z,74.40
